createdAt,value
2019-03-01T00:00:12.562Z,9.04
2019-03-01T00:02:39.185Z,9.09
2019-03-01T00:05:45.264Z,9.12
2019-03-01T00:08:35.445Z,9.06
2019-03-01T00:11:36.690Z,9.06
2019-03-01T00:14:27.130Z,9.01
2019-03-01T00:17:17.115Z,8.97
2019-03-01T00:20:35.725Z,8.92
2019-03-01T00:23:43.528Z,8.90
2019-03-01T00:26:33.683Z,8.91
2019-03-01T00:29:18.173Z,8.96
2019-03-01T00:32:13.562Z,8.90
2019-03-01T00:35:28.454Z,8.88
2019-03-01T00:38:37.334Z,8.95
2019-03-01T00:41:51.879Z,8.95
2019-03-01T00:44:30.684Z,8.96
2019-03-01T00:46:57.313Z,8.98
2019-03-01T00:49:23.887Z,8.95
2019-03-01T00:51:50.484Z,8.95
2019-03-01T00:54:17.056Z,9.01
2019-03-01T00:56:43.656Z,9.00
2019-03-01T00:59:10.242Z,8.98
2019-03-01T01:01:36.838Z,8.98
2019-03-01T01:04:03.439Z,8.96
2019-03-01T01:06:30.026Z,8.97
2019-03-01T01:08:56.593Z,9.00
2019-03-01T01:11:23.210Z,9.01
2019-03-01T01:13:49.809Z,9.01
2019-03-01T01:16:16.468Z,8.94
2019-03-01T01:18:43.046Z,9.02
2019-03-01T01:21:09.764Z,9.00
2019-03-01T01:23:36.352Z,8.94
2019-03-01T01:26:03.339Z,8.95
2019-03-01T01:28:29.944Z,8.90
2019-03-01T01:30:56.577Z,8.98
2019-03-01T01:33:23.181Z,8.99
2019-03-01T01:35:49.876Z,8.99
2019-03-01T01:38:16.569Z,9.03
2019-03-01T01:40:43.670Z,8.93
2019-03-01T01:43:10.296Z,8.96
2019-03-01T01:45:36.893Z,8.99
2019-03-01T01:48:03.857Z,8.97
2019-03-01T01:50:30.441Z,8.96
2019-03-01T01:52:57.035Z,9.00
2019-03-01T01:55:23.632Z,8.99
2019-03-01T01:57:50.187Z,8.89
2019-03-01T02:00:16.804Z,8.95
2019-03-01T02:02:43.409Z,8.93
2019-03-01T02:05:10.001Z,8.95
2019-03-01T02:07:36.793Z,8.91
2019-03-01T02:10:04.038Z,8.88
2019-03-01T02:12:30.637Z,8.94
2019-03-01T02:14:57.212Z,8.91
2019-03-01T02:17:23.811Z,8.87
2019-03-01T02:19:50.379Z,8.87
2019-03-01T02:22:16.972Z,8.84
2019-03-01T02:24:43.558Z,8.85
2019-03-01T02:27:24.872Z,8.85
2019-03-01T02:29:51.509Z,8.80
2019-03-01T02:32:26.675Z,8.77
2019-03-01T02:34:53.656Z,8.79
2019-03-01T02:37:20.288Z,8.80
2019-03-01T02:39:46.837Z,8.79
2019-03-01T02:42:13.401Z,8.88
2019-03-01T02:44:39.990Z,8.87
2019-03-01T02:47:06.666Z,8.90
2019-03-01T02:49:33.241Z,8.89
2019-03-01T02:51:59.968Z,8.93
2019-03-01T02:54:26.568Z,8.93
2019-03-01T02:56:53.145Z,8.85
2019-03-01T02:59:19.740Z,8.87
2019-03-01T03:01:46.312Z,8.85
2019-03-01T03:04:12.924Z,8.94
2019-03-01T03:06:45.007Z,8.85
2019-03-01T03:09:12.601Z,8.92
2019-03-01T03:11:39.195Z,8.94
2019-03-01T03:14:05.790Z,8.89
2019-03-01T03:16:32.383Z,8.92
2019-03-01T03:18:58.969Z,8.90
2019-03-01T03:21:25.603Z,8.90
2019-03-01T03:23:52.189Z,8.89
2019-03-01T03:26:19.049Z,8.91
2019-03-01T03:28:46.009Z,8.91
2019-03-01T03:31:12.656Z,8.98
2019-03-01T03:33:39.282Z,8.92
2019-03-01T03:36:05.861Z,9.04
2019-03-01T03:38:32.446Z,8.93
2019-03-01T03:40:59.012Z,9.02
2019-03-01T03:43:25.594Z,9.01
2019-03-01T03:45:52.198Z,8.99
2019-03-01T03:48:18.773Z,8.98
2019-03-01T03:50:45.382Z,9.02
2019-03-01T03:53:11.937Z,9.01
2019-03-01T03:55:38.533Z,9.04
2019-03-01T03:58:05.114Z,9.00
2019-03-01T04:00:31.701Z,9.03
2019-03-01T04:02:58.300Z,9.02
2019-03-01T04:05:24.889Z,8.97
2019-03-01T04:07:51.466Z,8.96
2019-03-01T04:10:18.077Z,8.98
2019-03-01T04:12:45.067Z,8.97
2019-03-01T04:15:12.357Z,8.96
2019-03-01T04:17:38.971Z,8.52
2019-03-01T04:20:07.700Z,8.99
2019-03-01T04:22:34.273Z,8.96
2019-03-01T04:25:00.852Z,9.04
2019-03-01T04:27:27.429Z,9.01
2019-03-01T04:29:54.027Z,9.02
2019-03-01T04:32:20.630Z,8.98
2019-03-01T04:34:47.276Z,8.94
2019-03-01T04:37:13.840Z,8.94
2019-03-01T04:39:40.479Z,8.88
2019-03-01T04:42:07.048Z,8.93
2019-03-01T04:44:33.658Z,8.92
2019-03-01T04:47:00.241Z,8.90
2019-03-01T04:49:26.856Z,8.84
2019-03-01T04:51:53.448Z,8.87
2019-03-01T04:54:20.113Z,8.94
2019-03-01T04:56:46.700Z,8.91
2019-03-01T04:59:13.263Z,8.92
2019-03-01T05:01:39.862Z,8.90
2019-03-01T05:04:06.437Z,8.98
2019-03-01T05:06:33.027Z,8.98
2019-03-01T05:08:59.702Z,8.89
2019-03-01T05:11:26.278Z,8.96
2019-03-01T05:13:52.866Z,9.01
2019-03-01T05:16:19.442Z,8.96
2019-03-01T05:18:46.037Z,8.96
2019-03-01T05:21:12.625Z,8.98
2019-03-01T05:23:39.200Z,8.96
2019-03-01T05:26:05.798Z,8.93
2019-03-01T05:28:32.478Z,8.91
2019-03-01T05:30:59.257Z,8.95
2019-03-01T05:33:25.938Z,8.91
2019-03-01T05:35:52.523Z,8.90
2019-03-01T05:38:22.031Z,8.86
2019-03-01T05:40:47.591Z,8.92
2019-03-01T05:43:14.168Z,8.97
2019-03-01T05:45:40.792Z,8.95
2019-03-01T05:48:07.387Z,8.92
2019-03-01T05:50:33.990Z,8.88
2019-03-01T05:53:00.552Z,8.87
2019-03-01T05:55:27.138Z,8.91
2019-03-01T05:58:27.968Z,8.91
2019-03-01T06:00:57.024Z,8.99
2019-03-01T06:03:47.246Z,8.93
2019-03-01T06:06:16.571Z,8.90
2019-03-01T06:09:06.634Z,8.87
2019-03-01T06:12:21.745Z,8.81
2019-03-01T06:15:10.381Z,8.87
2019-03-01T06:18:30.339Z,8.83
2019-03-01T06:21:08.321Z,8.81
2019-03-01T06:24:16.982Z,8.81
2019-03-01T06:27:04.965Z,8.85
2019-03-01T06:30:13.537Z,8.85
2019-03-01T06:33:28.438Z,8.75
2019-03-01T06:36:25.392Z,8.80
2019-03-01T06:39:48.345Z,8.76
2019-03-01T06:42:39.849Z,8.83
2019-03-01T06:45:51.504Z,8.85
2019-03-01T06:48:34.064Z,8.83
2019-03-01T06:51:07.667Z,8.90
2019-03-01T06:53:34.255Z,8.91
2019-03-01T06:56:02.539Z,8.87
2019-03-01T06:58:35.395Z,8.96
2019-03-01T07:01:09.146Z,8.90
2019-03-01T07:03:35.749Z,8.99
2019-03-01T07:06:03.665Z,8.95
2019-03-01T07:08:30.312Z,9.03
2019-03-01T07:10:56.947Z,9.08
2019-03-01T07:13:23.540Z,9.07
2019-03-01T07:15:50.137Z,9.15
2019-03-01T07:18:16.727Z,9.09
2019-03-01T07:20:43.854Z,9.06
2019-03-01T07:23:10.452Z,9.08
2019-03-01T07:25:37.019Z,9.15
2019-03-01T07:28:03.611Z,9.16
2019-03-01T07:30:30.177Z,9.19
2019-03-01T07:32:56.797Z,9.14
2019-03-01T07:35:23.692Z,9.25
2019-03-01T07:37:50.297Z,9.23
2019-03-01T07:40:17.279Z,9.29
2019-03-01T07:42:43.870Z,9.39
2019-03-01T07:45:10.457Z,9.51
2019-03-01T07:47:37.060Z,9.52
2019-03-01T07:50:04.458Z,9.60
2019-03-01T07:52:31.062Z,9.68
2019-03-01T07:54:57.977Z,9.57
2019-03-01T07:57:24.966Z,9.60
2019-03-01T07:59:51.560Z,9.48
2019-03-01T08:02:18.167Z,9.45
2019-03-01T08:04:44.741Z,9.41
2019-03-01T08:07:11.302Z,9.31
2019-03-01T08:09:37.903Z,9.22
2019-03-01T08:12:07.441Z,9.28
2019-03-01T08:14:33.178Z,9.31
2019-03-01T08:17:00.118Z,9.47
2019-03-01T08:19:26.705Z,9.32
2019-03-01T08:21:53.278Z,9.42
2019-03-01T08:24:19.877Z,9.35
2019-03-01T08:26:46.449Z,9.35
2019-03-01T08:29:13.032Z,9.19
2019-03-01T08:31:39.599Z,9.18
2019-03-01T08:34:06.219Z,9.14
2019-03-01T08:36:32.810Z,9.13
2019-03-01T08:39:02.993Z,9.09
2019-03-01T08:41:27.884Z,9.05
2019-03-01T08:43:54.487Z,9.12
2019-03-01T08:46:21.164Z,9.15
2019-03-01T08:48:47.759Z,9.23
2019-03-01T08:51:14.687Z,9.42
2019-03-01T08:53:41.259Z,9.60
2019-03-01T08:56:10.978Z,9.73
2019-03-01T08:58:37.748Z,9.86
2019-03-01T09:01:08.321Z,10.10
2019-03-01T09:03:38.813Z,10.51
2019-03-01T09:06:05.414Z,10.76
2019-03-01T09:08:31.983Z,10.61
2019-03-01T09:10:58.589Z,10.82
2019-03-01T09:13:25.159Z,11.07
2019-03-01T09:15:51.747Z,10.93
2019-03-01T09:18:18.322Z,11.03
2019-03-01T09:20:44.932Z,10.89
2019-03-01T09:23:22.889Z,10.87
2019-03-01T09:25:41.407Z,10.80
2019-03-01T09:28:08.684Z,10.53
2019-03-01T09:30:35.276Z,10.34
2019-03-01T09:33:01.875Z,10.07
2019-03-01T09:35:45.127Z,10.07
2019-03-01T09:38:11.772Z,10.35
2019-03-01T09:40:38.366Z,10.57
2019-03-01T09:43:04.931Z,10.76
2019-03-01T09:45:36.140Z,11.10
2019-03-01T09:47:59.995Z,11.41
2019-03-01T09:50:26.590Z,11.57
2019-03-01T09:52:55.516Z,11.64
2019-03-01T09:55:21.660Z,11.60
2019-03-01T09:57:48.236Z,11.83
2019-03-01T10:00:16.206Z,12.24
2019-03-01T10:02:42.874Z,11.73
2019-03-01T10:05:10.875Z,11.18
2019-03-01T10:07:37.504Z,10.68
2019-03-01T10:10:06.085Z,10.38
2019-03-01T10:12:32.683Z,9.95
2019-03-01T10:14:59.259Z,9.91
2019-03-01T10:17:25.864Z,9.83
2019-03-01T10:19:52.444Z,9.97
2019-03-01T10:22:19.729Z,10.03
2019-03-01T10:24:46.295Z,10.11
2019-03-01T10:27:13.001Z,10.34
2019-03-01T10:29:39.907Z,10.48
2019-03-01T10:32:06.832Z,10.32
2019-03-01T10:34:33.524Z,10.49
2019-03-01T10:37:00.113Z,10.51
2019-03-01T10:39:26.685Z,10.50
2019-03-01T10:41:53.695Z,10.30
2019-03-01T10:44:20.269Z,10.07
2019-03-01T10:46:46.857Z,9.83
2019-03-01T10:49:13.432Z,9.78
2019-03-01T10:51:40.148Z,9.64
2019-03-01T10:54:06.723Z,9.45
2019-03-01T10:56:33.322Z,9.42
2019-03-01T10:58:59.927Z,9.33
2019-03-01T11:01:26.862Z,9.43
2019-03-01T11:03:53.423Z,9.64
2019-03-01T11:06:20.011Z,9.55
2019-03-01T11:08:46.599Z,9.57
2019-03-01T11:11:13.555Z,9.49
2019-03-01T11:13:40.166Z,9.42
2019-03-01T11:16:06.783Z,9.48
2019-03-01T11:18:33.492Z,9.37
2019-03-01T11:21:00.090Z,9.15
2019-03-01T11:23:26.682Z,9.17
2019-03-01T11:25:56.724Z,9.09
2019-03-01T11:28:23.361Z,8.93
2019-03-01T11:30:49.946Z,8.92
2019-03-01T11:33:16.648Z,8.89
2019-03-01T11:35:43.210Z,8.96
2019-03-01T11:38:09.837Z,9.15
2019-03-01T11:40:36.408Z,9.51
2019-03-01T11:43:03.124Z,9.71
2019-03-01T11:45:29.698Z,9.83
2019-03-01T11:47:56.294Z,9.76
2019-03-01T11:50:22.987Z,9.94
2019-03-01T11:52:49.577Z,10.10
2019-03-01T11:55:16.535Z,10.29
2019-03-01T11:57:43.128Z,10.55
2019-03-01T12:00:12.566Z,10.68
2019-03-01T12:02:39.156Z,11.03
2019-03-01T12:05:07.307Z,11.25
2019-03-01T12:07:33.936Z,11.41
2019-03-01T12:10:00.505Z,11.29
2019-03-01T12:12:27.125Z,10.72
2019-03-01T12:14:53.739Z,10.11
2019-03-01T12:17:20.324Z,9.87
2019-03-01T12:19:46.916Z,9.67
2019-03-01T12:22:17.146Z,9.44
2019-03-01T12:24:41.999Z,9.28
2019-03-01T12:27:08.567Z,9.05
2019-03-01T12:29:35.157Z,9.02
2019-03-01T12:32:01.766Z,9.02
2019-03-01T12:34:28.368Z,8.91
2019-03-01T12:36:54.951Z,8.77
2019-03-01T12:39:21.542Z,8.66
2019-03-01T12:41:48.111Z,8.36
2019-03-01T12:44:14.693Z,8.23
2019-03-01T12:46:41.269Z,8.28
2019-03-01T12:49:07.871Z,8.12
2019-03-01T12:51:34.432Z,8.10
2019-03-01T12:54:01.000Z,8.19
2019-03-01T12:56:27.598Z,8.35
2019-03-01T12:58:54.192Z,8.39
2019-03-01T13:01:20.774Z,8.36
2019-03-01T13:03:47.369Z,8.36
2019-03-01T13:06:13.939Z,8.08
2019-03-01T13:08:40.958Z,8.03
2019-03-01T13:11:07.863Z,7.87
2019-03-01T13:13:38.018Z,7.72
2019-03-01T13:16:02.942Z,7.52
2019-03-01T13:18:29.849Z,7.53
2019-03-01T13:20:56.410Z,7.68
2019-03-01T13:23:22.997Z,7.65
2019-03-01T13:25:49.879Z,7.71
2019-03-01T13:28:16.836Z,7.53
2019-03-01T13:30:43.428Z,7.52
2019-03-01T13:33:10.030Z,7.61
2019-03-01T13:35:36.617Z,7.59
2019-03-01T13:38:04.010Z,7.74
2019-03-01T13:40:30.748Z,7.70
2019-03-01T13:42:57.323Z,7.74
2019-03-01T13:45:23.921Z,7.70
2019-03-01T13:47:50.492Z,7.64
2019-03-01T13:50:18.162Z,7.61
2019-03-01T13:52:44.759Z,7.46
2019-03-01T13:55:11.399Z,7.34
2019-03-01T13:57:37.994Z,7.25
2019-03-01T14:00:05.453Z,7.17
2019-03-01T14:02:32.044Z,7.22
2019-03-01T14:04:58.648Z,7.30
2019-03-01T14:07:25.253Z,7.04
2019-03-01T14:09:51.891Z,6.92
2019-03-01T14:12:18.501Z,7.12
2019-03-01T14:14:45.088Z,7.13
2019-03-01T14:17:11.732Z,7.08
2019-03-01T14:19:38.991Z,7.02
2019-03-01T14:22:10.745Z,6.92
2019-03-01T14:24:35.340Z,6.83
2019-03-01T14:27:01.947Z,6.87
2019-03-01T14:29:28.572Z,6.90
2019-03-01T14:31:55.173Z,6.91
2019-03-01T14:34:22.134Z,6.93
2019-03-01T14:36:48.703Z,7.00
2019-03-01T14:39:15.972Z,7.06
2019-03-01T14:41:42.547Z,6.78
2019-03-01T14:44:09.157Z,6.78
2019-03-01T14:46:35.720Z,6.86
2019-03-01T14:49:02.323Z,6.95
2019-03-01T14:51:28.903Z,6.97
2019-03-01T14:53:55.504Z,6.91
2019-03-01T14:56:26.497Z,6.81
2019-03-01T14:59:21.495Z,6.78
2019-03-01T15:02:10.377Z,6.75
2019-03-01T15:04:36.972Z,6.67
2019-03-01T15:07:03.571Z,6.51
2019-03-01T15:09:30.168Z,6.37
2019-03-01T15:11:56.744Z,6.36
2019-03-01T15:14:23.342Z,6.24
2019-03-01T15:16:49.924Z,6.16
2019-03-01T15:19:16.521Z,6.15
2019-03-01T15:21:43.214Z,6.22
2019-03-01T15:24:09.929Z,6.20
2019-03-01T15:26:36.714Z,6.08
2019-03-01T15:29:05.789Z,5.68
2019-03-01T15:31:32.473Z,6.23
2019-03-01T15:33:59.302Z,6.16
2019-03-01T15:36:25.990Z,6.21
2019-03-01T15:38:52.780Z,6.24
2019-03-01T15:41:19.817Z,5.93
2019-03-01T15:43:46.503Z,5.87
2019-03-01T15:46:14.338Z,5.98
2019-03-01T15:48:41.865Z,5.96
2019-03-01T15:51:08.684Z,5.91
2019-03-01T15:53:35.501Z,5.89
2019-03-01T15:56:05.782Z,5.89
2019-03-01T15:58:33.266Z,5.88
2019-03-01T16:01:00.014Z,5.88
2019-03-01T16:03:26.911Z,5.81
2019-03-01T16:05:53.722Z,5.68
2019-03-01T16:08:20.760Z,5.61
2019-03-01T16:10:47.501Z,5.29
2019-03-01T16:13:14.087Z,5.21
2019-03-01T16:15:40.980Z,5.23
2019-03-01T16:18:08.013Z,5.19
2019-03-01T16:20:34.820Z,5.19
2019-03-01T16:23:01.402Z,5.22
2019-03-01T16:25:28.204Z,5.18
2019-03-01T16:27:55.133Z,5.31
2019-03-01T16:30:22.011Z,5.37
2019-03-01T16:32:50.466Z,5.22
2019-03-01T16:35:17.543Z,5.15
2019-03-01T16:37:46.295Z,5.25
2019-03-01T16:40:15.122Z,5.35
2019-03-01T16:42:41.888Z,5.32
2019-03-01T16:45:10.347Z,5.36
2019-03-01T16:47:38.243Z,5.36
2019-03-01T16:50:09.883Z,5.41
2019-03-01T16:52:36.635Z,5.41
2019-03-01T16:55:04.100Z,5.37
2019-03-01T16:57:31.018Z,5.37
2019-03-01T16:59:57.617Z,5.14
2019-03-01T17:02:24.421Z,5.14
2019-03-01T17:04:51.201Z,5.20
2019-03-01T17:07:18.017Z,5.12
2019-03-01T17:09:47.303Z,5.12
2019-03-01T17:12:13.866Z,5.03
2019-03-01T17:14:42.544Z,5.00
2019-03-01T17:17:09.523Z,5.09
2019-03-01T17:19:36.303Z,5.09
2019-03-01T17:22:03.111Z,5.13
2019-03-01T17:24:30.003Z,5.12
2019-03-01T17:26:56.808Z,5.07
2019-03-01T17:29:23.487Z,5.02
2019-03-01T17:31:50.208Z,5.02
2019-03-01T17:34:17.019Z,5.01
2019-03-01T17:36:43.830Z,5.07
2019-03-01T17:39:10.615Z,5.15
2019-03-01T17:41:37.318Z,5.10
2019-03-01T17:44:04.841Z,5.12
2019-03-01T17:46:33.746Z,5.20
2019-03-01T17:49:00.627Z,5.13
2019-03-01T17:51:28.831Z,5.19
2019-03-01T17:53:55.875Z,5.09
2019-03-01T17:56:22.769Z,5.07
2019-03-01T17:58:49.638Z,5.15
2019-03-01T18:01:16.497Z,5.15
2019-03-01T18:03:43.178Z,5.17
2019-03-01T18:06:13.006Z,5.02
2019-03-01T18:08:39.709Z,5.02
2019-03-01T18:11:08.798Z,4.82
2019-03-01T18:13:36.351Z,5.07
2019-03-01T18:16:03.156Z,4.93
2019-03-01T18:18:29.868Z,4.83
2019-03-01T18:20:56.563Z,4.79
2019-03-01T18:23:23.268Z,4.87
2019-03-01T18:25:50.056Z,4.95
2019-03-01T18:28:17.064Z,5.01
2019-03-01T18:30:43.751Z,4.89
2019-03-01T18:33:10.575Z,4.93
2019-03-01T18:35:37.371Z,4.88
2019-03-01T18:38:04.082Z,4.88
2019-03-01T18:40:30.966Z,4.98
2019-03-01T18:42:57.719Z,4.90
2019-03-01T18:45:24.834Z,4.88
2019-03-01T18:47:51.646Z,4.84
2019-03-01T18:50:23.759Z,4.83
2019-03-01T18:52:53.204Z,4.76
2019-03-01T18:55:19.160Z,4.81
2019-03-01T18:57:45.969Z,4.76
2019-03-01T19:00:21.279Z,4.85
2019-03-01T19:02:47.983Z,4.78
2019-03-01T19:05:15.313Z,4.83
2019-03-01T19:07:42.163Z,4.87
2019-03-01T19:10:09.347Z,4.81
2019-03-01T19:12:36.173Z,4.76
2019-03-01T19:15:03.341Z,4.88
2019-03-01T19:17:30.063Z,4.85
2019-03-01T19:19:56.869Z,4.78
2019-03-01T19:22:24.814Z,4.76
2019-03-01T19:24:52.404Z,4.78
2019-03-01T19:27:19.181Z,4.75
2019-03-01T19:29:45.885Z,4.72
2019-03-01T19:32:12.469Z,4.74
2019-03-01T19:34:39.329Z,4.70
2019-03-01T19:37:06.016Z,4.67
2019-03-01T19:39:35.311Z,4.77
2019-03-01T19:42:01.290Z,4.73
2019-03-01T19:44:29.768Z,4.75
2019-03-01T19:46:56.765Z,4.78
2019-03-01T19:49:23.462Z,4.75
2019-03-01T19:51:50.344Z,4.71
2019-03-01T19:54:17.057Z,4.71
2019-03-01T19:56:43.745Z,4.76
2019-03-01T19:59:10.596Z,4.72
2019-03-01T20:01:37.276Z,4.72
2019-03-01T20:04:04.082Z,4.73
2019-03-01T20:06:30.669Z,4.72
2019-03-01T20:08:57.472Z,4.76
2019-03-01T20:11:26.709Z,4.71
2019-03-01T20:13:53.690Z,4.68
2019-03-01T20:16:22.747Z,4.70
2019-03-01T20:18:50.235Z,4.77
2019-03-01T20:21:17.028Z,4.75
2019-03-01T20:23:43.839Z,4.77
2019-03-01T20:26:10.425Z,4.85
2019-03-01T20:28:37.281Z,4.73
2019-03-01T20:31:04.953Z,4.79
2019-03-01T20:33:32.464Z,4.84
2019-03-01T20:35:59.318Z,4.81
2019-03-01T20:38:26.214Z,4.73
2019-03-01T20:40:53.024Z,4.75
2019-03-01T20:43:19.598Z,4.76
2019-03-01T20:45:46.463Z,4.79
2019-03-01T20:48:13.261Z,4.76
2019-03-01T20:50:40.060Z,4.79
2019-03-01T20:53:06.748Z,4.79
2019-03-01T20:55:37.101Z,4.85
2019-03-01T20:58:03.124Z,4.80
2019-03-01T21:00:30.727Z,4.75
2019-03-01T21:02:57.439Z,4.71
2019-03-01T21:05:25.003Z,4.72
2019-03-01T21:07:53.949Z,4.71
2019-03-01T21:10:21.620Z,4.73
2019-03-01T21:12:48.303Z,4.79
2019-03-01T21:15:15.811Z,4.73
2019-03-01T21:17:45.800Z,4.74
2019-03-01T21:20:15.967Z,4.83
2019-03-01T21:22:41.564Z,4.77
2019-03-01T21:25:09.908Z,4.79
2019-03-01T21:27:36.690Z,4.79
2019-03-01T21:30:05.081Z,4.87
2019-03-01T21:32:31.888Z,4.78
2019-03-01T21:34:58.497Z,4.75
2019-03-01T21:37:25.206Z,4.73
2019-03-01T21:39:51.812Z,4.66
2019-03-01T21:42:20.311Z,4.73
2019-03-01T21:44:47.272Z,4.79
2019-03-01T21:47:13.870Z,4.83
2019-03-01T21:49:40.561Z,4.74
2019-03-01T21:52:07.247Z,4.74
2019-03-01T21:54:34.246Z,4.74
2019-03-01T21:57:01.020Z,4.67
2019-03-01T21:59:27.832Z,4.67
2019-03-01T22:01:54.617Z,4.68
2019-03-01T22:04:21.335Z,4.65
2019-03-01T22:06:48.124Z,4.59
2019-03-01T22:09:15.437Z,4.65
2019-03-01T22:11:42.172Z,4.63
2019-03-01T22:14:10.783Z,4.55
2019-03-01T22:16:39.422Z,4.58
2019-03-01T22:19:07.247Z,4.66
2019-03-01T22:21:34.201Z,4.70
2019-03-01T22:24:00.923Z,4.67
2019-03-01T22:26:27.822Z,4.70
2019-03-01T22:28:54.410Z,4.66
2019-03-01T22:31:21.116Z,4.63
2019-03-01T22:33:48.189Z,4.60
2019-03-01T22:36:17.939Z,4.62
2019-03-01T22:38:43.797Z,4.65
2019-03-01T22:41:10.512Z,4.58
2019-03-01T22:43:37.089Z,4.58
2019-03-01T22:46:03.895Z,4.57
2019-03-01T22:48:30.489Z,4.55
2019-03-01T22:50:57.100Z,4.57
2019-03-01T22:53:23.687Z,4.53
2019-03-01T22:55:50.293Z,4.51
2019-03-01T22:58:16.970Z,4.58
2019-03-01T23:01:06.761Z,4.54
2019-03-01T23:03:33.481Z,4.52
2019-03-01T23:06:00.289Z,4.53
2019-03-01T23:08:27.108Z,4.56
2019-03-01T23:10:56.903Z,4.51
2019-03-01T23:13:22.611Z,4.57
2019-03-01T23:15:49.427Z,4.54
2019-03-01T23:18:16.240Z,4.51
2019-03-01T23:20:42.929Z,4.56
2019-03-01T23:23:09.733Z,4.53
2019-03-01T23:25:36.522Z,4.54
2019-03-01T23:28:04.042Z,4.46
2019-03-01T23:30:32.042Z,4.56
2019-03-01T23:32:58.769Z,4.55
2019-03-01T23:35:25.447Z,4.52
2019-03-01T23:37:52.257Z,4.52
2019-03-01T23:40:19.033Z,4.53
2019-03-01T23:42:46.167Z,4.55
2019-03-01T23:45:13.756Z,4.48
2019-03-01T23:47:41.579Z,4.53
2019-03-01T23:50:08.361Z,4.49
2019-03-01T23:52:35.077Z,4.51
2019-03-01T23:55:02.077Z,4.51
2019-03-01T23:57:28.874Z,4.55
2019-03-01T23:59:58.678Z,4.55
